LNI680 WARR-WAGG
Flight info
| Callsign | LNI680 |
|---|---|
| Flight time | 1h 3m |
| Altitude | 33000 |
| Route | RAMPY W31 BDM |
| Aircraft | B739/M-SDE2E3FGHIRWXY/LB1 |
Departure
| Time | 2026-04-26 06:49 |
|---|---|
| Airport | Juanda International Airport (WARR) |
Arrival
| Time | 2026-04-26 07:52 |
|---|---|
| Airport | Tjilik Riwut Airport (WAGG) |
| Time | Latitude | Longitude | Altitude | Speed | Heading |
|---|---|---|---|---|---|
| 2026-04-26 06:19 | -7.37555 | 112.79237 | 8 ft | 0 kts | 9° |
| 2026-04-26 06:40 | -7.37558 | 112.79236 | 8 ft | 2 kts | 9° |
| 2026-04-26 06:40 | -7.37573 | 112.79234 | 8 ft | 2 kts | 9° |
| 2026-04-26 06:40 | -7.37587 | 112.79231 | 8 ft | 2 kts | 9° |
| 2026-04-26 06:41 | -7.37602 | 112.79229 | 8 ft | 2 kts | 9° |
| 2026-04-26 06:41 | -7.37617 | 112.79227 | 8 ft | 2 kts | 347° |
| 2026-04-26 06:41 | -7.37631 | 112.79234 | 8 ft | 2 kts | 325° |
| 2026-04-26 06:41 | -7.37642 | 112.79244 | 8 ft | 2 kts | 301° |
| 2026-04-26 06:42 | -7.37647 | 112.79258 | 8 ft | 2 kts | 278° |
| 2026-04-26 06:42 | -7.37648 | 112.79267 | 8 ft | 0 kts | 276° |
| 2026-04-26 06:43 | -7.37648 | 112.79264 | 8 ft | 2 kts | 278° |
| 2026-04-26 06:44 | -7.37642 | 112.79230 | 8 ft | 7 kts | 280° |
| 2026-04-26 06:44 | -7.37630 | 112.79160 | 8 ft | 12 kts | 279° |
| 2026-04-26 06:44 | -7.37682 | 112.79093 | 8 ft | 16 kts | 191° |
| 2026-04-26 06:44 | -7.37800 | 112.79074 | 8 ft | 16 kts | 191° |
| 2026-04-26 06:45 | -7.37858 | 112.78989 | 8 ft | 21 kts | 277° |
| 2026-04-26 06:45 | -7.37833 | 112.78835 | 11 ft | 23 kts | 279° |
| 2026-04-26 06:45 | -7.37804 | 112.78663 | 11 ft | 26 kts | 278° |
| 2026-04-26 06:45 | -7.37773 | 112.78468 | 11 ft | 29 kts | 279° |
| 2026-04-26 06:46 | -7.37736 | 112.78245 | 11 ft | 34 kts | 279° |
| 2026-04-26 06:46 | -7.37697 | 112.77998 | 11 ft | 35 kts | 279° |
| 2026-04-26 06:46 | -7.37659 | 112.77764 | 11 ft | 33 kts | 279° |
| 2026-04-26 06:46 | -7.37622 | 112.77540 | 11 ft | 31 kts | 279° |
| 2026-04-26 06:47 | -7.37613 | 112.77414 | 11 ft | 12 kts | 244° |
| 2026-04-26 06:47 | -7.37649 | 112.77385 | 11 ft | 0 kts | 197° |
| 2026-04-26 06:47 | -7.37653 | 112.77383 | 11 ft | 2 kts | 194° |
| 2026-04-26 06:47 | -7.37702 | 112.77374 | 11 ft | 12 kts | 190° |
| 2026-04-26 06:48 | -7.37779 | 112.77425 | 11 ft | 21 kts | 100° |
| 2026-04-26 06:48 | -7.37833 | 112.77773 | 11 ft | 86 kts | 97° |
| 2026-04-26 06:48 | -7.37972 | 112.78610 | 11 ft | 152 kts | 99° |
| 2026-04-26 06:48 | -7.38171 | 112.79777 | 316 ft | 182 kts | 100° |
| 2026-04-26 06:49 | -7.38374 | 112.81033 | 1183 ft | 182 kts | 98° |
| 2026-04-26 06:49 | -7.38566 | 112.82282 | 1860 ft | 192 kts | 97° |
| 2026-04-26 06:49 | -7.38785 | 112.83666 | 2348 ft | 207 kts | 98° |
| 2026-04-26 06:49 | -7.39012 | 112.85156 | 2845 ft | 224 kts | 98° |
| 2026-04-26 06:50 | -7.39257 | 112.86755 | 3349 ft | 241 kts | 98° |
| 2026-04-26 06:50 | -7.39548 | 112.88509 | 3721 ft | 264 kts | 100° |
| 2026-04-26 06:50 | -7.39885 | 112.90343 | 4480 ft | 270 kts | 97° |
| 2026-04-26 06:50 | -7.39812 | 112.92267 | 5164 ft | 277 kts | 71° |
| 2026-04-26 06:51 | -7.38978 | 112.93936 | 6127 ft | 276 kts | 57° |
| 2026-04-26 06:51 | -7.36619 | 112.97060 | 7758 ft | 282 kts | 51° |
| 2026-04-26 06:51 | -7.35403 | 112.98601 | 8534 ft | 285 kts | 52° |
| 2026-04-26 06:52 | -7.34155 | 113.00160 | 9493 ft | 279 kts | 51° |
| 2026-04-26 06:52 | -7.32951 | 113.01632 | 10193 ft | 286 kts | 52° |
| 2026-04-26 06:52 | -7.31769 | 113.03198 | 11104 ft | 276 kts | 56° |
| 2026-04-26 06:52 | -7.30644 | 113.04803 | 11442 ft | 293 kts | 56° |
| 2026-04-26 06:53 | -7.29464 | 113.06477 | 12380 ft | 284 kts | 56° |
| 2026-04-26 06:53 | -7.28278 | 113.08144 | 12668 ft | 302 kts | 56° |
| 2026-04-26 06:53 | -7.26947 | 113.09832 | 13008 ft | 319 kts | 48° |
| 2026-04-26 06:53 | -7.25128 | 113.11217 | 13325 ft | 337 kts | 27° |
| 2026-04-26 06:54 | -7.22830 | 113.11981 | 13669 ft | 355 kts | 16° |
| 2026-04-26 06:54 | -7.20364 | 113.12511 | 14267 ft | 361 kts | 13° |
| 2026-04-26 06:54 | -7.17853 | 113.13000 | 14912 ft | 365 kts | 13° |
| 2026-04-26 06:54 | -7.15344 | 113.13509 | 15527 ft | 369 kts | 14° |
| 2026-04-26 06:55 | -7.12796 | 113.14059 | 16133 ft | 372 kts | 15° |
| 2026-04-26 06:55 | -7.10255 | 113.14636 | 16739 ft | 375 kts | 15° |
| 2026-04-26 06:55 | -7.07650 | 113.15243 | 17316 ft | 379 kts | 16° |
| 2026-04-26 06:55 | -7.05089 | 113.15845 | 17925 ft | 381 kts | 16° |
| 2026-04-26 06:56 | -7.02488 | 113.16457 | 18461 ft | 385 kts | 16° |
| 2026-04-26 06:56 | -6.99858 | 113.17077 | 18995 ft | 388 kts | 16° |
| 2026-04-26 06:56 | -6.97224 | 113.17696 | 19512 ft | 391 kts | 15° |
| 2026-04-26 06:56 | -6.94535 | 113.18326 | 20059 ft | 393 kts | 15° |
| 2026-04-26 06:57 | -6.91815 | 113.18964 | 20577 ft | 396 kts | 15° |
| 2026-04-26 06:57 | -6.89142 | 113.19591 | 21031 ft | 399 kts | 15° |
| 2026-04-26 06:57 | -6.86400 | 113.20233 | 21510 ft | 402 kts | 15° |
| 2026-04-26 06:57 | -6.83639 | 113.20880 | 21990 ft | 404 kts | 15° |
| 2026-04-26 06:58 | -6.80885 | 113.21525 | 22416 ft | 408 kts | 15° |
| 2026-04-26 06:58 | -6.78053 | 113.22188 | 22902 ft | 410 kts | 15° |
| 2026-04-26 06:58 | -6.75267 | 113.22840 | 23328 ft | 413 kts | 15° |
| 2026-04-26 06:58 | -6.72438 | 113.23503 | 23791 ft | 415 kts | 15° |
| 2026-04-26 06:59 | -6.69609 | 113.24166 | 24226 ft | 417 kts | 15° |
| 2026-04-26 06:59 | -6.66775 | 113.24829 | 24682 ft | 419 kts | 15° |
| 2026-04-26 06:59 | -6.63891 | 113.25505 | 25128 ft | 420 kts | 15° |
| 2026-04-26 06:59 | -6.61020 | 113.26176 | 25537 ft | 423 kts | 15° |
| 2026-04-26 07:00 | -6.58166 | 113.26845 | 25927 ft | 425 kts | 15° |
| 2026-04-26 07:00 | -6.55261 | 113.27525 | 26328 ft | 427 kts | 15° |
| 2026-04-26 07:00 | -6.52350 | 113.28205 | 26719 ft | 429 kts | 15° |
| 2026-04-26 07:00 | -6.49430 | 113.28888 | 27097 ft | 431 kts | 15° |
| 2026-04-26 07:01 | -6.46468 | 113.29582 | 27449 ft | 433 kts | 15° |
| 2026-04-26 07:01 | -6.43536 | 113.30267 | 27849 ft | 434 kts | 15° |
| 2026-04-26 07:01 | -6.40580 | 113.30959 | 28165 ft | 437 kts | 15° |
| 2026-04-26 07:01 | -6.37613 | 113.31653 | 28554 ft | 438 kts | 15° |
| 2026-04-26 07:02 | -6.34625 | 113.32351 | 28868 ft | 441 kts | 15° |
| 2026-04-26 07:02 | -6.31623 | 113.33054 | 29177 ft | 443 kts | 15° |
| 2026-04-26 07:02 | -6.28616 | 113.33767 | 29644 ft | 441 kts | 16° |
| 2026-04-26 07:02 | -6.25683 | 113.34605 | 30134 ft | 438 kts | 20° |
| 2026-04-26 07:03 | -6.22838 | 113.35665 | 30611 ft | 435 kts | 24° |
| 2026-04-26 07:03 | -6.20045 | 113.36895 | 30984 ft | 434 kts | 27° |
| 2026-04-26 07:03 | -6.17343 | 113.38184 | 31372 ft | 434 kts | 28° |
| 2026-04-26 07:03 | -6.14641 | 113.39520 | 31772 ft | 432 kts | 28° |
| 2026-04-26 07:04 | -6.11918 | 113.40879 | 32163 ft | 431 kts | 28° |
| 2026-04-26 07:04 | -6.09241 | 113.42215 | 32515 ft | 431 kts | 28° |
| 2026-04-26 07:04 | -6.06516 | 113.43570 | 32819 ft | 432 kts | 28° |
| 2026-04-26 07:04 | -6.03813 | 113.44908 | 32814 ft | 433 kts | 28° |
| 2026-04-26 07:05 | -5.98454 | 113.47543 | 32813 ft | 429 kts | 28° |
| 2026-04-26 07:05 | -5.93065 | 113.50182 | 32821 ft | 429 kts | 28° |
| 2026-04-26 07:06 | -5.87677 | 113.52814 | 32821 ft | 430 kts | 28° |
| 2026-04-26 07:06 | -5.82222 | 113.55479 | 32822 ft | 440 kts | 28° |
| 2026-04-26 07:07 | -5.76635 | 113.58207 | 32813 ft | 453 kts | 28° |
| 2026-04-26 07:07 | -5.70910 | 113.60999 | 32808 ft | 464 kts | 27° |
| 2026-04-26 07:08 | -5.65053 | 113.63854 | 32802 ft | 464 kts | 28° |
| 2026-04-26 07:08 | -5.59209 | 113.66698 | 32802 ft | 464 kts | 28° |
| 2026-04-26 07:09 | -5.53411 | 113.69521 | 32802 ft | 464 kts | 28° |
| 2026-04-26 07:09 | -5.47565 | 113.72369 | 32803 ft | 465 kts | 27° |
| 2026-04-26 07:11 | -5.33010 | 113.79457 | 32802 ft | 464 kts | 28° |
| 2026-04-26 07:11 | -5.27184 | 113.82293 | 32802 ft | 464 kts | 27° |
| 2026-04-26 07:12 | -5.21343 | 113.85138 | 32801 ft | 464 kts | 28° |
| 2026-04-26 07:12 | -5.15545 | 113.87960 | 32801 ft | 465 kts | 28° |
| 2026-04-26 07:13 | -5.09732 | 113.90788 | 32801 ft | 464 kts | 28° |
| 2026-04-26 07:13 | -5.03879 | 113.93636 | 32801 ft | 464 kts | 28° |
| 2026-04-26 07:14 | -4.98074 | 113.96458 | 32801 ft | 465 kts | 28° |
| 2026-04-26 07:14 | -4.92266 | 113.99296 | 32801 ft | 464 kts | 28° |
| 2026-04-26 07:15 | -4.86486 | 114.02169 | 32801 ft | 463 kts | 28° |
| 2026-04-26 07:15 | -4.80671 | 114.05075 | 32799 ft | 465 kts | 28° |
| 2026-04-26 07:16 | -4.74907 | 114.07952 | 32797 ft | 465 kts | 28° |
| 2026-04-26 07:16 | -4.69110 | 114.10840 | 32794 ft | 465 kts | 28° |
| 2026-04-26 07:17 | -4.63274 | 114.13745 | 32794 ft | 464 kts | 28° |
| 2026-04-26 07:17 | -4.57507 | 114.16612 | 32793 ft | 464 kts | 28° |
| 2026-04-26 07:18 | -4.51704 | 114.19496 | 32793 ft | 464 kts | 28° |
| 2026-04-26 07:18 | -4.45928 | 114.22366 | 32794 ft | 465 kts | 28° |
| 2026-04-26 07:19 | -4.40100 | 114.25262 | 32789 ft | 455 kts | 28° |
| 2026-04-26 07:19 | -4.37308 | 114.26646 | 32791 ft | 439 kts | 28° |
| 2026-04-26 07:19 | -4.34607 | 114.27985 | 32786 ft | 426 kts | 28° |
| 2026-04-26 07:20 | -4.29315 | 114.30616 | 32788 ft | 428 kts | 28° |
| 2026-04-26 07:20 | -4.23978 | 114.33275 | 32784 ft | 430 kts | 28° |
| 2026-04-26 07:21 | -4.18607 | 114.35943 | 32785 ft | 428 kts | 28° |
| 2026-04-26 07:21 | -4.13272 | 114.38593 | 32789 ft | 429 kts | 28° |
| 2026-04-26 07:22 | -4.07877 | 114.41273 | 32793 ft | 430 kts | 28° |
| 2026-04-26 07:22 | -4.02519 | 114.43932 | 32792 ft | 429 kts | 28° |
| 2026-04-26 07:23 | -3.97176 | 114.46584 | 32788 ft | 430 kts | 28° |
| 2026-04-26 07:23 | -3.91787 | 114.49256 | 32787 ft | 430 kts | 28° |
| 2026-04-26 07:24 | -3.86435 | 114.51910 | 32782 ft | 430 kts | 29° |
| 2026-04-26 07:24 | -3.81055 | 114.54579 | 32787 ft | 429 kts | 29° |
| 2026-04-26 07:25 | -3.75717 | 114.57230 | 32777 ft | 431 kts | 29° |
| 2026-04-26 07:25 | -3.70326 | 114.59905 | 32655 ft | 427 kts | 29° |
| 2026-04-26 07:25 | -3.67651 | 114.61231 | 32131 ft | 425 kts | 29° |
| 2026-04-26 07:26 | -3.65032 | 114.62528 | 31609 ft | 419 kts | 29° |
| 2026-04-26 07:26 | -3.62422 | 114.63823 | 31023 ft | 413 kts | 29° |
| 2026-04-26 07:26 | -3.59858 | 114.65095 | 30345 ft | 410 kts | 29° |
| 2026-04-26 07:26 | -3.57305 | 114.66361 | 29696 ft | 407 kts | 29° |
| 2026-04-26 07:27 | -3.54781 | 114.67612 | 28987 ft | 407 kts | 29° |
| 2026-04-26 07:27 | -3.52213 | 114.68859 | 28319 ft | 410 kts | 28° |
| 2026-04-26 07:27 | -3.49561 | 114.69942 | 27596 ft | 415 kts | 21° |
| 2026-04-26 07:27 | -3.46731 | 114.70513 | 27117 ft | 416 kts | 7° |
| 2026-04-26 07:28 | -3.43818 | 114.70484 | 26681 ft | 415 kts | 356° |
| 2026-04-26 07:28 | -3.40991 | 114.70003 | 26191 ft | 414 kts | 350° |
| 2026-04-26 07:28 | -3.38188 | 114.69211 | 25685 ft | 414 kts | 342° |
| 2026-04-26 07:28 | -3.35593 | 114.68030 | 25219 ft | 413 kts | 333° |
| 2026-04-26 07:29 | -3.33133 | 114.66556 | 24852 ft | 408 kts | 329° |
| 2026-04-26 07:29 | -3.30819 | 114.65009 | 24630 ft | 394 kts | 327° |
| 2026-04-26 07:29 | -3.28598 | 114.63474 | 24396 ft | 380 kts | 327° |
| 2026-04-26 07:29 | -3.26455 | 114.61993 | 24138 ft | 368 kts | 328° |
| 2026-04-26 07:30 | -3.24342 | 114.60549 | 23698 ft | 363 kts | 328° |
| 2026-04-26 07:30 | -3.22253 | 114.59142 | 23179 ft | 359 kts | 328° |
| 2026-04-26 07:30 | -3.20191 | 114.57770 | 22683 ft | 356 kts | 328° |
| 2026-04-26 07:30 | -3.18141 | 114.56413 | 22211 ft | 352 kts | 328° |
| 2026-04-26 07:31 | -3.16104 | 114.55070 | 21725 ft | 349 kts | 328° |
| 2026-04-26 07:31 | -3.14097 | 114.53750 | 21249 ft | 346 kts | 328° |
| 2026-04-26 07:31 | -3.12081 | 114.52425 | 20853 ft | 343 kts | 328° |
| 2026-04-26 07:31 | -3.10077 | 114.51108 | 20468 ft | 341 kts | 328° |
| 2026-04-26 07:32 | -3.08099 | 114.49809 | 20087 ft | 340 kts | 328° |
| 2026-04-26 07:32 | -3.06121 | 114.48510 | 19714 ft | 338 kts | 328° |
| 2026-04-26 07:32 | -3.04178 | 114.47233 | 19561 ft | 328 kts | 328° |
| 2026-04-26 07:32 | -3.02304 | 114.46000 | 19437 ft | 318 kts | 328° |
| 2026-04-26 07:33 | -3.00464 | 114.44791 | 18999 ft | 319 kts | 328° |
| 2026-04-26 07:33 | -2.98583 | 114.43557 | 18412 ft | 322 kts | 328° |
| 2026-04-26 07:33 | -2.96715 | 114.42332 | 17840 ft | 325 kts | 328° |
| 2026-04-26 07:33 | -2.94801 | 114.41074 | 17248 ft | 326 kts | 327° |
| 2026-04-26 07:34 | -2.92908 | 114.39830 | 16694 ft | 326 kts | 327° |
| 2026-04-26 07:34 | -2.91027 | 114.38594 | 16222 ft | 324 kts | 328° |
| 2026-04-26 07:34 | -2.89147 | 114.37359 | 15747 ft | 321 kts | 328° |
| 2026-04-26 07:34 | -2.87289 | 114.36137 | 15282 ft | 319 kts | 328° |
| 2026-04-26 07:35 | -2.85438 | 114.34921 | 14814 ft | 317 kts | 328° |
| 2026-04-26 07:35 | -2.83590 | 114.33709 | 14338 ft | 315 kts | 328° |
| 2026-04-26 07:35 | -2.81756 | 114.32507 | 13859 ft | 313 kts | 328° |
| 2026-04-26 07:35 | -2.79962 | 114.31331 | 13518 ft | 306 kts | 328° |
| 2026-04-26 07:36 | -2.78209 | 114.30179 | 13278 ft | 296 kts | 328° |
| 2026-04-26 07:36 | -2.76498 | 114.29054 | 13036 ft | 286 kts | 328° |
| 2026-04-26 07:36 | -2.74863 | 114.27978 | 12807 ft | 278 kts | 328° |
| 2026-04-26 07:36 | -2.73258 | 114.26925 | 12567 ft | 270 kts | 328° |
| 2026-04-26 07:37 | -2.71710 | 114.25910 | 12304 ft | 267 kts | 328° |
| 2026-04-26 07:37 | -2.70139 | 114.24882 | 11840 ft | 271 kts | 328° |
| 2026-04-26 07:37 | -2.68556 | 114.23846 | 11371 ft | 275 kts | 328° |
| 2026-04-26 07:37 | -2.66953 | 114.22774 | 10904 ft | 278 kts | 325° |
| 2026-04-26 07:38 | -2.65463 | 114.21542 | 10444 ft | 281 kts | 319° |
| 2026-04-26 07:38 | -2.64020 | 114.20193 | 9963 ft | 283 kts | 317° |
| 2026-04-26 07:38 | -2.62603 | 114.18834 | 9492 ft | 285 kts | 319° |
| 2026-04-26 07:38 | -2.61004 | 114.17670 | 9024 ft | 284 kts | 331° |
| 2026-04-26 07:39 | -2.59252 | 114.16742 | 8549 ft | 284 kts | 335° |
| 2026-04-26 07:39 | -2.57490 | 114.15867 | 8157 ft | 281 kts | 335° |
| 2026-04-26 07:39 | -2.55748 | 114.15005 | 7802 ft | 275 kts | 335° |
| 2026-04-26 07:39 | -2.54062 | 114.14168 | 7446 ft | 267 kts | 335° |
| 2026-04-26 07:40 | -2.52421 | 114.13352 | 7093 ft | 261 kts | 335° |
| 2026-04-26 07:40 | -2.50820 | 114.12551 | 6738 ft | 255 kts | 333° |
| 2026-04-26 07:40 | -2.49472 | 114.11415 | 6377 ft | 252 kts | 307° |
| 2026-04-26 07:40 | -2.48847 | 114.09823 | 6024 ft | 251 kts | 277° |
| 2026-04-26 07:41 | -2.49019 | 114.08104 | 5669 ft | 248 kts | 257° |
| 2026-04-26 07:41 | -2.49469 | 114.06448 | 5309 ft | 244 kts | 255° |
| 2026-04-26 07:41 | -2.49929 | 114.04826 | 4955 ft | 241 kts | 255° |
| 2026-04-26 07:41 | -2.50377 | 114.03224 | 4609 ft | 240 kts | 255° |
| 2026-04-26 07:42 | -2.50822 | 114.01619 | 4256 ft | 240 kts | 255° |
| 2026-04-26 07:42 | -2.51060 | 113.99977 | 3960 ft | 234 kts | 279° |
| 2026-04-26 07:42 | -2.50385 | 113.98632 | 3925 ft | 211 kts | 321° |
| 2026-04-26 07:42 | -2.49105 | 113.98171 | 3917 ft | 184 kts | 8° |
| 2026-04-26 07:43 | -2.48060 | 113.98716 | 3919 ft | 168 kts | 44° |
| 2026-04-26 07:43 | -2.47119 | 113.99411 | 3916 ft | 170 kts | 22° |
| 2026-04-26 07:43 | -2.45990 | 113.99741 | 3923 ft | 163 kts | 16° |
| 2026-04-26 07:43 | -2.44902 | 114.00024 | 3918 ft | 159 kts | 16° |
| 2026-04-26 07:44 | -2.43817 | 114.00312 | 3850 ft | 162 kts | 16° |
| 2026-04-26 07:44 | -2.42730 | 114.00600 | 3676 ft | 160 kts | 16° |
| 2026-04-26 07:44 | -2.41654 | 114.00881 | 3509 ft | 159 kts | 16° |
| 2026-04-26 07:44 | -2.40585 | 114.01160 | 3351 ft | 160 kts | 16° |
| 2026-04-26 07:45 | -2.39474 | 114.01248 | 3194 ft | 156 kts | 353° |
| 2026-04-26 07:45 | -2.38437 | 114.00988 | 3084 ft | 151 kts | 345° |
| 2026-04-26 07:45 | -2.37448 | 114.00588 | 2933 ft | 155 kts | 332° |
| 2026-04-26 07:45 | -2.36608 | 113.99919 | 2720 ft | 156 kts | 324° |
| 2026-04-26 07:46 | -2.35635 | 113.99571 | 2378 ft | 148 kts | 9° |
| 2026-04-26 07:46 | -2.34786 | 114.00069 | 2288 ft | 143 kts | 59° |
| 2026-04-26 07:46 | -2.34662 | 114.01035 | 2289 ft | 146 kts | 108° |
| 2026-04-26 07:46 | -2.35296 | 114.01826 | 2298 ft | 149 kts | 135° |
| 2026-04-26 07:47 | -2.35919 | 114.02631 | 2296 ft | 146 kts | 113° |
| 2026-04-26 07:47 | -2.36078 | 114.03611 | 2294 ft | 145 kts | 71° |
| 2026-04-26 07:47 | -2.35370 | 114.04269 | 2295 ft | 149 kts | 12° |
| 2026-04-26 07:47 | -2.34394 | 114.03951 | 2298 ft | 155 kts | 313° |
| 2026-04-26 07:48 | -2.33804 | 114.03040 | 2308 ft | 155 kts | 305° |
| 2026-04-26 07:48 | -2.33331 | 114.02071 | 2244 ft | 156 kts | 282° |
| 2026-04-26 07:48 | -2.33161 | 114.01015 | 2229 ft | 155 kts | 280° |
| 2026-04-26 07:48 | -2.32981 | 113.99931 | 2127 ft | 156 kts | 280° |
| 2026-04-26 07:49 | -2.32663 | 113.98907 | 1989 ft | 154 kts | 305° |
| 2026-04-26 07:49 | -2.31879 | 113.98191 | 1785 ft | 154 kts | 336° |
| 2026-04-26 07:49 | -2.30877 | 113.97847 | 1574 ft | 152 kts | 335° |
| 2026-04-26 07:50 | -2.29148 | 113.96700 | 1150 ft | 148 kts | 337° |
| 2026-04-26 07:50 | -2.28182 | 113.96355 | 848 ft | 144 kts | 343° |
| 2026-04-26 07:50 | -2.27225 | 113.96064 | 785 ft | 143 kts | 344° |
| 2026-04-26 07:50 | -2.26280 | 113.95703 | 544 ft | 144 kts | 340° |
| 2026-04-26 07:51 | -2.25346 | 113.95338 | 389 ft | 143 kts | 340° |
| 2026-04-26 07:51 | -2.24415 | 113.94987 | 213 ft | 143 kts | 340° |
| 2026-04-26 07:51 | -2.23481 | 113.94631 | 76 ft | 138 kts | 341° |
| 2026-04-26 07:51 | -2.22640 | 113.94312 | 55 ft | 114 kts | 340° |
| 2026-04-26 07:52 | -2.22013 | 113.94072 | 56 ft | 73 kts | 339° |
| 2026-04-26 07:52 | -2.21766 | 113.93982 | 53 ft | 21 kts | 346° |
| 2026-04-26 07:52 | -2.21760 | 113.93951 | 54 ft | 11 kts | 138° |
| 2026-04-26 07:52 | -2.21822 | 113.93997 | 54 ft | 12 kts | 156° |
| 2026-04-26 07:53 | -2.21936 | 113.94041 | 55 ft | 24 kts | 159° |
| 2026-04-26 07:53 | -2.22131 | 113.94116 | 57 ft | 34 kts | 159° |
| 2026-04-26 07:53 | -2.22379 | 113.94211 | 56 ft | 41 kts | 159° |
| 2026-04-26 07:53 | -2.22665 | 113.94321 | 54 ft | 46 kts | 159° |
| 2026-04-26 07:54 | -2.22970 | 113.94437 | 54 ft | 34 kts | 159° |
| 2026-04-26 07:54 | -2.23153 | 113.94508 | 54 ft | 13 kts | 149° |
| 2026-04-26 07:54 | -2.23159 | 113.94589 | 52 ft | 12 kts | 69° |
| 2026-04-26 07:54 | -2.23131 | 113.94670 | 51 ft | 9 kts | 96° |
| 2026-04-26 07:55 | -2.23175 | 113.94699 | 51 ft | 3 kts | 134° |
| 2026-04-26 07:55 | -2.23175 | 113.94727 | 51 ft | 3 kts | 78° |
| 2026-04-26 07:55 | -2.23168 | 113.94750 | 51 ft | 3 kts | 71° |
| 2026-04-26 07:55 | -2.23164 | 113.94762 | 51 ft | 0 kts | 70° |